Pagrindinis puslapis
METAR-TAF:

METAR-TAF

Oro uostai :

Salvadoras, Salvadoras

platuma: 13-26N, ilguma: 089-03W, Aukštis: 25 m

Dabartinis oras

Ataskaita buvo paskelbta 29 minutes, ne 22:50 UTC
Vėjas 8 kt iš Pietvakarių, svyruoja nuo Pietų ir Vakarų/Pietvakarių
Temperatūra 30°C
Drėgmė 62%
Slėgis 1009 hPa
Matomumas 10 km arba daugiau
Mažai debesys ne aukštis 4700 ft

METAR: MSLP 242250Z 22008KT 190V250 9999 FEW047 30/22 Q1009 A2981 NOSIG

Laikas: 17:19 (23:19 UTC)

Prognozė

Ataskaita buvo paskelbta 7 valandos ir 54 minutes, ne 15:25 UTC
Prognozė galioja nuo 24 metu 18 UTC su 25 metu 18 UTC
Vėjas 10 kt iš Pietų/Pietvakarių
Matomumas 10 km arba daugiau
Mažai debesys ne aukštis 6000 ft
Nuo 25 metu 0000 UTC
Vėjas 3 kt nuo kintamojo kryptimis
Matomumas 10 km arba daugiau
nėra debesų žemiau 1500 m ir nėra kamuolinių lietaus debesų
Nuo 25 metu 0300 UTC
Vėjas 4 kt iš Šiaurės Rytų

TAF: MSLP 241525Z 2418/2518 20010KT 9999 FEW060 TX34/2418Z TN24/2512Z FM250000 VRB03KT CAVOK FM250300 04004KT

Orai ataskaitas ir orų prognozės (METAR, TAF).

turimą stotys yra geltonos ir raudonos taškus žemėlapyje.

Perkelti pele per norėdami pamatyti stoties vardą.

Tada spustelėkite, norėdami matyti oro stebėjimo ir prognozės.

Norėdami pakeisti žemėlapį: spustelėkite ant žalios mygtukų su juodo kryžiaus žemyn,; žalią mygtuką su brūkšneliu, jei norite nutolinti; arba žalių rodyklių gretimoms žemėlapius.


METAR-TAF: